sensor_id;sensor_type;location;lat;lon;timestamp;pressure;altitude;pressure_sealevel;temperature;humidity
59493;BME280;45497;43.996;22.876;2022-07-22T12:16:25;101079.25;;;27.14;36.30
59493;BME280;45497;43.996;22.876;2022-07-22T12:23:55;101073.69;;;30.89;29.41
59493;BME280;45497;43.996;22.876;2022-07-22T12:26:40;101067.75;;;32.58;26.41
59493;BME280;45497;43.996;22.876;2022-07-22T12:31:27;101075.56;;;30.37;30.26
59493;BME280;45497;43.996;22.876;2022-07-22T12:35:24;101060.75;;;28.33;33.31
59493;BME280;45497;43.996;22.876;2022-07-22T12:37:52;101059.25;;;28.06;34.60
59493;BME280;45497;43.996;22.876;2022-07-22T12:44:26;101067.53;;;27.65;35.90
59493;BME280;45497;43.996;22.876;2022-07-22T12:46:55;101063.97;;;27.70;36.02
59493;BME280;45497;43.996;22.876;2022-07-22T12:49:24;101059.88;;;27.77;35.58
59493;BME280;45497;43.996;22.876;2022-07-22T13:05:39;101046.59;;;25.47;40.59
59493;BME280;45497;43.996;22.876;2022-07-22T13:08:07;101044.94;;;25.88;40.45
59493;BME280;45497;43.996;22.876;2022-07-22T13:10:34;101038.56;;;24.92;40.51
59493;BME280;45497;43.996;22.876;2022-07-22T13:19:58;101039.28;;;24.83;40.41
59493;BME280;45497;43.996;22.876;2022-07-22T13:29:31;101035.53;;;24.34;41.87
59493;BME280;45497;43.996;22.876;2022-07-22T13:32:52;101024.69;;;24.56;42.13
59493;BME280;45497;43.996;22.876;2022-07-22T13:38:22;101028.50;;;29.97;29.54
59493;BME280;45497;43.996;22.876;2022-07-22T13:40:47;101016.75;;;31.38;26.77
59493;BME280;45497;43.996;22.876;2022-07-22T13:43:17;101025.03;;;32.30;24.61
59493;BME280;45497;43.996;22.876;2022-07-22T13:45:43;101013.22;;;32.88;24.14
59493;BME280;45497;43.996;22.876;2022-07-22T13:48:09;101010.28;;;33.39;23.18
59493;BME280;45497;43.996;22.876;2022-07-22T13:50:34;101008.63;;;33.78;22.45
59493;BME280;45497;43.996;22.876;2022-07-22T13:53:00;101008.03;;;34.16;22.27
59493;BME280;45497;43.996;22.876;2022-07-22T13:55:26;101003.03;;;34.44;22.38
59493;BME280;45497;43.996;22.876;2022-07-22T13:57:51;100991.34;;;34.73;22.37
59493;BME280;45497;43.996;22.876;2022-07-22T14:00:17;100995.88;;;34.87;22.03
59493;BME280;45497;43.996;22.876;2022-07-22T14:02:44;101002.63;;;35.07;22.07
59493;BME280;45497;43.996;22.876;2022-07-22T14:05:10;100991.56;;;35.24;21.72
59493;BME280;45497;43.996;22.876;2022-07-22T14:07:37;100983.75;;;35.35;21.59
59493;BME280;45497;43.996;22.876;2022-07-22T14:10:03;100984.16;;;35.46;21.06
59493;BME280;45497;43.996;22.876;2022-07-22T14:12:29;100985.91;;;35.50;19.94
59493;BME280;45497;43.996;22.876;2022-07-22T14:14:54;100987.28;;;35.65;19.59
59493;BME280;45497;43.996;22.876;2022-07-22T14:17:20;100983.56;;;35.70;19.85
59493;BME280;45497;43.996;22.876;2022-07-22T14:19:46;100983.50;;;35.78;19.18
59493;BME280;45497;43.996;22.876;2022-07-22T14:22:11;100980.19;;;35.85;18.33
59493;BME280;45497;43.996;22.876;2022-07-22T14:24:37;100981.97;;;35.90;18.29
59493;BME280;45497;43.996;22.876;2022-07-22T14:27:03;100975.78;;;35.93;18.35
59493;BME280;45497;43.996;22.876;2022-07-22T14:29:28;100978.09;;;36.03;18.00
59493;BME280;45497;43.996;22.876;2022-07-22T14:31:54;100975.34;;;36.03;17.86
59493;BME280;45497;43.996;22.876;2022-07-22T14:34:19;100971.41;;;36.13;18.06
59493;BME280;45497;43.996;22.876;2022-07-22T14:36:45;100974.75;;;36.18;18.15
59493;BME280;45497;43.996;22.876;2022-07-22T14:39:10;100969.72;;;36.21;18.31
59493;BME280;45497;43.996;22.876;2022-07-22T14:41:36;100968.25;;;36.23;18.45
59493;BME280;45497;43.996;22.876;2022-07-22T14:44:02;100968.25;;;36.23;18.24
59493;BME280;45497;43.996;22.876;2022-07-22T14:46:27;100972.94;;;36.23;17.71
59493;BME280;45497;43.996;22.876;2022-07-22T14:48:53;100967.31;;;36.19;17.98
59493;BME280;45497;43.996;22.876;2022-07-22T14:51:20;100969.19;;;36.27;17.82
59493;BME280;45497;43.996;22.876;2022-07-22T14:53:46;100964.94;;;36.30;17.01
59493;BME280;45497;43.996;22.876;2022-07-22T14:56:12;100958.75;;;36.33;16.69
59493;BME280;45497;43.996;22.876;2022-07-22T14:58:37;100955.19;;;36.32;16.42
59493;BME280;45497;43.996;22.876;2022-07-22T15:01:03;100958.41;;;36.34;16.42
59493;BME280;45497;43.996;22.876;2022-07-22T15:03:28;100956.91;;;36.37;16.96
59493;BME280;45497;43.996;22.876;2022-07-22T15:05:54;100957.84;;;36.41;16.76
59493;BME280;45497;43.996;22.876;2022-07-22T15:08:20;100945.88;;;36.37;17.17
59493;BME280;45497;43.996;22.876;2022-07-22T15:10:45;100946.81;;;36.41;17.06
59493;BME280;45497;43.996;22.876;2022-07-22T15:13:11;100951.84;;;36.39;16.65
59493;BME280;45497;43.996;22.876;2022-07-22T15:15:36;100943.56;;;36.39;16.99
59493;BME280;45497;43.996;22.876;2022-07-22T15:18:02;100947.63;;;36.42;16.86
59493;BME280;45497;43.996;22.876;2022-07-22T15:20:28;100948.41;;;36.42;16.97
59493;BME280;45497;43.996;22.876;2022-07-22T15:22:54;100942.56;;;36.44;16.80
59493;BME280;45497;43.996;22.876;2022-07-22T15:25:20;100947.28;;;36.43;16.97
59493;BME280;45497;43.996;22.876;2022-07-22T15:27:50;100941.06;;;36.46;16.92
59493;BME280;45497;43.996;22.876;2022-07-22T15:30:16;100942.22;;;36.45;17.08
59493;BME280;45497;43.996;22.876;2022-07-22T15:32:41;100939.00;;;36.43;17.19
59493;BME280;45497;43.996;22.876;2022-07-22T15:35:09;100945.44;;;36.47;17.53
59493;BME280;45497;43.996;22.876;2022-07-22T15:37:34;100941.06;;;36.46;16.71
59493;BME280;45497;43.996;22.876;2022-07-22T15:40:03;100938.66;;;36.45;17.33
59493;BME280;45497;43.996;22.876;2022-07-22T15:42:28;100930.50;;;36.48;16.96
59493;BME280;45497;43.996;22.876;2022-07-22T15:44:54;100927.38;;;36.50;16.95
59493;BME280;45497;43.996;22.876;2022-07-22T15:47:30;100924.50;;;36.46;16.44
59493;BME280;45497;43.996;22.876;2022-07-22T15:49:56;100923.81;;;36.49;16.15
59493;BME280;45497;43.996;22.876;2022-07-22T15:52:21;100919.78;;;36.47;16.03
59493;BME280;45497;43.996;22.876;2022-07-22T15:54:47;100926.13;;;36.47;16.35
59493;BME280;45497;43.996;22.876;2022-07-22T15:57:12;100921.84;;;36.50;15.87
59493;BME280;45497;43.996;22.876;2022-07-22T15:59:57;100924.97;;;36.48;16.59
59493;BME280;45497;43.996;22.876;2022-07-22T16:02:22;100917.97;;;36.51;16.60
59493;BME280;45497;43.996;22.876;2022-07-22T16:04:48;100921.06;;;36.49;16.58
59493;BME280;45497;43.996;22.876;2022-07-22T16:07:13;100917.25;;;36.42;16.67
59493;BME280;45497;43.996;22.876;2022-07-22T16:09:39;100920.13;;;36.45;16.92
59493;BME280;45497;43.996;22.876;2022-07-22T16:12:05;100918.16;;;36.46;17.52
59493;BME280;45497;43.996;22.876;2022-07-22T16:14:30;100923.34;;;36.47;17.67
59493;BME280;45497;43.996;22.876;2022-07-22T16:16:56;100922.69;;;36.50;17.75
59493;BME280;45497;43.996;22.876;2022-07-22T16:19:21;100919.78;;;36.47;18.40
59493;BME280;45497;43.996;22.876;2022-07-22T16:21:47;100921.59;;;36.43;18.38
59493;BME280;45497;43.996;22.876;2022-07-22T16:24:12;100921.97;;;36.41;18.32
59493;BME280;45497;43.996;22.876;2022-07-22T16:26:38;100916.31;;;36.38;18.36
59493;BME280;45497;43.996;22.876;2022-07-22T16:29:04;100913.69;;;36.41;18.15
59493;BME280;45497;43.996;22.876;2022-07-22T16:31:30;100915.16;;;36.39;18.43
59493;BME280;45497;43.996;22.876;2022-07-22T16:33:55;100916.66;;;36.36;18.22
59493;BME280;45497;43.996;22.876;2022-07-22T16:36:22;100914.56;;;36.33;17.89
59493;BME280;45497;43.996;22.876;2022-07-22T16:38:47;100910.69;;;36.34;18.17
59493;BME280;45497;43.996;22.876;2022-07-22T16:41:14;100921.72;;;36.34;18.40
59493;BME280;45497;43.996;22.876;2022-07-22T16:43:40;100923.31;;;36.35;18.19
59493;BME280;45497;43.996;22.876;2022-07-22T16:46:06;100926.41;;;36.33;18.27
59493;BME280;45497;43.996;22.876;2022-07-22T16:48:32;100919.16;;;36.29;18.33
59493;BME280;45497;43.996;22.876;2022-07-22T16:50:58;100926.63;;;36.28;18.48
59493;BME280;45497;43.996;22.876;2022-07-22T16:53:23;100921.47;;;36.27;18.88
59493;BME280;45497;43.996;22.876;2022-07-22T16:55:49;100919.03;;;36.25;19.22
59493;BME280;45497;43.996;22.876;2022-07-22T16:58:14;100920.03;;;36.21;19.34
59493;BME280;45497;43.996;22.876;2022-07-22T17:00:40;100920.03;;;36.21;19.55
59493;BME280;45497;43.996;22.876;2022-07-22T17:03:07;100917.81;;;36.14;19.79
59493;BME280;45497;43.996;22.876;2022-07-22T17:05:33;100919.75;;;36.13;19.95
59493;BME280;45497;43.996;22.876;2022-07-22T17:08:00;100926.66;;;36.07;20.87
59493;BME280;45497;43.996;22.876;2022-07-22T17:10:26;100919.38;;;36.03;21.09
59493;BME280;45497;43.996;22.876;2022-07-22T17:12:52;100920.41;;;35.98;21.47
59493;BME280;45497;43.996;22.876;2022-07-22T17:15:17;100922.53;;;35.92;22.12
59493;BME280;45497;43.996;22.876;2022-07-22T17:17:45;100918.84;;;35.88;22.60
59493;BME280;45497;43.996;22.876;2022-07-22T17:20:11;100916.28;;;35.83;23.02
59493;BME280;45497;43.996;22.876;2022-07-22T17:22:40;100913.59;;;35.74;23.83
59493;BME280;45497;43.996;22.876;2022-07-22T17:25:07;100918.81;;;35.67;23.49
59493;BME280;45497;43.996;22.876;2022-07-22T17:27:33;100910.75;;;35.62;23.64
59493;BME280;45497;43.996;22.876;2022-07-22T17:30:00;100907.38;;;35.56;23.94
59493;BME280;45497;43.996;22.876;2022-07-22T17:32:26;100914.22;;;35.50;23.67
59493;BME280;45497;43.996;22.876;2022-07-22T17:34:51;100913.63;;;35.45;23.53
59493;BME280;45497;43.996;22.876;2022-07-22T17:37:17;100906.19;;;35.36;24.16
59493;BME280;45497;43.996;22.876;2022-07-22T17:39:44;100909.50;;;35.30;23.87
59493;BME280;45497;43.996;22.876;2022-07-22T17:42:10;100901.75;;;35.23;23.62
59493;BME280;45497;43.996;22.876;2022-07-22T17:44:36;100903.41;;;35.15;23.93
59493;BME280;45497;43.996;22.876;2022-07-22T17:47:01;100905.19;;;35.11;24.07
59493;BME280;45497;43.996;22.876;2022-07-22T17:49:27;100910.53;;;35.08;24.35
59493;BME280;45497;43.996;22.876;2022-07-22T17:51:54;100908.97;;;34.98;24.31
59493;BME280;45497;43.996;22.876;2022-07-22T17:54:20;100903.31;;;34.94;24.60
59493;BME280;45497;43.996;22.876;2022-07-22T17:56:46;100915.69;;;34.88;24.99
59493;BME280;45497;43.996;22.876;2022-07-22T17:59:11;100909.19;;;34.84;24.83
59493;BME280;45497;43.996;22.876;2022-07-22T18:01:37;100917.16;;;34.77;24.83
59493;BME280;45497;43.996;22.876;2022-07-22T18:04:04;100914.59;;;34.72;25.05
59493;BME280;45497;43.996;22.876;2022-07-22T18:06:30;100920.72;;;34.69;24.92
59493;BME280;45497;43.996;22.876;2022-07-22T18:08:56;100919.75;;;34.64;25.04
59493;BME280;45497;43.996;22.876;2022-07-22T18:11:21;100916.06;;;34.60;25.38
59493;BME280;45497;43.996;22.876;2022-07-22T18:13:47;100920.13;;;34.54;25.46
59493;BME280;45497;43.996;22.876;2022-07-22T18:16:13;100919.50;;;34.49;25.40
59493;BME280;45497;43.996;22.876;2022-07-22T18:18:39;100915.28;;;34.42;25.77
59493;BME280;45497;43.996;22.876;2022-07-22T18:21:05;100917.56;;;34.40;25.57
59493;BME280;45497;43.996;22.876;2022-07-22T18:23:30;100916.94;;;34.35;25.89
59493;BME280;45497;43.996;22.876;2022-07-22T18:25:56;100920.97;;;34.28;25.98
59493;BME280;45497;43.996;22.876;2022-07-22T18:28:21;100924.72;;;34.24;26.19
59493;BME280;45497;43.996;22.876;2022-07-22T18:30:47;100937.81;;;34.18;25.96
59493;BME280;45497;43.996;22.876;2022-07-22T18:33:13;100932.13;;;34.15;25.83
59493;BME280;45497;43.996;22.876;2022-07-22T18:35:40;100937.00;;;34.09;26.01
59493;BME280;45497;43.996;22.876;2022-07-22T18:38:05;100942.66;;;34.04;25.98
59493;BME280;45497;43.996;22.876;2022-07-22T18:40:31;100940.53;;;34.01;26.13
59493;BME280;45497;43.996;22.876;2022-07-22T18:42:56;100945.56;;;33.99;26.40
59493;BME280;45497;43.996;22.876;2022-07-22T18:45:22;100947.03;;;33.96;26.31
59493;BME280;45497;43.996;22.876;2022-07-22T18:47:49;100957.53;;;33.94;26.13
59493;BME280;45497;43.996;22.876;2022-07-22T18:50:14;100952.19;;;33.89;26.19
59493;BME280;45497;43.996;22.876;2022-07-22T18:52:40;100950.09;;;33.86;26.07
59493;BME280;45497;43.996;22.876;2022-07-22T18:55:05;100960.75;;;33.79;26.45
59493;BME280;45497;43.996;22.876;2022-07-22T18:57:31;100955.56;;;33.77;26.69
59493;BME280;45497;43.996;22.876;2022-07-22T18:59:56;100960.59;;;33.75;26.65
59493;BME280;45497;43.996;22.876;2022-07-22T19:02:22;100962.00;;;33.64;27.11
59493;BME280;45497;43.996;22.876;2022-07-22T19:07:13;100967.81;;;33.62;27.66
59493;BME280;45497;43.996;22.876;2022-07-22T19:09:39;100971.50;;;33.58;27.80
59493;BME280;45497;43.996;22.876;2022-07-22T19:12:05;100966.47;;;33.51;27.73
59493;BME280;45497;43.996;22.876;2022-07-22T19:14:30;100971.81;;;33.47;28.10
59493;BME280;45497;43.996;22.876;2022-07-22T19:16:56;100973.09;;;33.41;28.06
59493;BME280;45497;43.996;22.876;2022-07-22T19:19:21;100976.28;;;33.34;28.37
59493;BME280;45497;43.996;22.876;2022-07-22T19:21:47;100972.56;;;33.30;28.58
59493;BME280;45497;43.996;22.876;2022-07-22T19:24:12;100974.97;;;33.23;28.96
59493;BME280;45497;43.996;22.876;2022-07-22T19:26:39;100977.66;;;33.14;29.24
59493;BME280;45497;43.996;22.876;2022-07-22T19:29:05;100977.78;;;33.09;29.14
59493;BME280;45497;43.996;22.876;2022-07-22T19:31:30;100976.47;;;33.07;29.15
59493;BME280;45497;43.996;22.876;2022-07-22T19:33:56;100985.47;;;32.99;29.68
59493;BME280;45497;43.996;22.876;2022-07-22T19:36:23;100988.03;;;32.95;29.50
59493;BME280;45497;43.996;22.876;2022-07-22T19:38:49;100997.56;;;32.89;29.54
59493;BME280;45497;43.996;22.876;2022-07-22T19:41:16;100996.38;;;32.81;29.97
59493;BME280;45497;43.996;22.876;2022-07-22T19:43:41;101006.16;;;32.73;30.12
59493;BME280;45497;43.996;22.876;2022-07-22T19:46:07;101001.94;;;32.67;30.36
59493;BME280;45497;43.996;22.876;2022-07-22T19:48:32;101003.50;;;32.60;29.46
59493;BME280;45497;43.996;22.876;2022-07-22T19:50:58;101005.00;;;32.52;29.29
59493;BME280;45497;43.996;22.876;2022-07-22T19:53:23;101013.69;;;32.45;29.00
59493;BME280;45497;43.996;22.876;2022-07-22T19:55:50;101012.00;;;32.35;28.92
59493;BME280;45497;43.996;22.876;2022-07-22T20:01:56;101008.28;;;32.17;29.02
59493;BME280;45497;43.996;22.876;2022-07-22T20:04:21;101008.72;;;32.11;29.62
59493;BME280;45497;43.996;22.876;2022-07-22T20:06:47;101014.63;;;32.04;29.32
59493;BME280;45497;43.996;22.876;2022-07-22T20:11:05;101015.63;;;31.94;29.87
59493;BME280;45497;43.996;22.876;2022-07-22T20:13:33;101016.66;;;31.85;29.83
59493;BME280;45497;43.996;22.876;2022-07-22T20:15:58;101020.00;;;31.81;29.71
59493;BME280;45497;43.996;22.876;2022-07-22T20:18:25;101015.06;;;31.70;29.86
59493;BME280;45497;43.996;22.876;2022-07-22T20:20:50;101013.91;;;31.71;29.66
59493;BME280;45497;43.996;22.876;2022-07-22T20:23:16;101012.63;;;31.68;29.88
59493;BME280;45497;43.996;22.876;2022-07-22T20:25:42;101021.75;;;31.63;30.01
59493;BME280;45497;43.996;22.876;2022-07-22T20:28:09;101016.34;;;31.58;29.89
59493;BME280;45497;43.996;22.876;2022-07-22T20:32:22;101013.25;;;31.51;29.80
59493;BME280;45497;43.996;22.876;2022-07-22T20:34:48;101023.13;;;31.47;30.09
59493;BME280;45497;43.996;22.876;2022-07-22T20:37:13;101008.94;;;31.45;30.10
59493;BME280;45497;43.996;22.876;2022-07-22T20:39:39;101009.53;;;31.42;30.10
59493;BME280;45497;43.996;22.876;2022-07-22T20:42:04;101009.66;;;31.37;30.09
59493;BME280;45497;43.996;22.876;2022-07-22T20:44:30;101012.69;;;31.35;30.27
59493;BME280;45497;43.996;22.876;2022-07-22T20:46:55;101011.16;;;31.29;30.56
59493;BME280;45497;43.996;22.876;2022-07-22T20:49:25;101017.53;;;31.24;30.76
59493;BME280;45497;43.996;22.876;2022-07-22T20:51:50;101021.09;;;31.25;30.16
59493;BME280;45497;43.996;22.876;2022-07-22T20:54:16;101013.16;;;31.23;30.16
59493;BME280;45497;43.996;22.876;2022-07-22T20:56:42;101013.75;;;31.20;30.13
59493;BME280;45497;43.996;22.876;2022-07-22T20:59:07;101016.50;;;31.20;30.45
59493;BME280;45497;43.996;22.876;2022-07-22T21:02:37;101017.50;;;31.11;30.66
59493;BME280;45497;43.996;22.876;2022-07-22T21:05:04;101012.13;;;31.05;31.04
59493;BME280;45497;43.996;22.876;2022-07-22T21:08:32;101015.78;;;31.01;31.68
59493;BME280;45497;43.996;22.876;2022-07-22T21:10:59;101018.91;;;30.94;31.52
59493;BME280;45497;43.996;22.876;2022-07-22T21:13:26;101019.03;;;30.84;31.74
59493;BME280;45497;43.996;22.876;2022-07-22T21:17:03;101017.22;;;30.79;31.88
59493;BME280;45497;43.996;22.876;2022-07-22T21:20:09;101019.19;;;30.74;32.23
59493;BME280;45497;43.996;22.876;2022-07-22T21:22:35;101016.03;;;30.66;32.18
59493;BME280;45497;43.996;22.876;2022-07-22T21:25:02;101021.38;;;30.58;32.57
59493;BME280;45497;43.996;22.876;2022-07-22T21:27:27;101029.16;;;30.51;32.74
59493;BME280;45497;43.996;22.876;2022-07-22T21:29:53;101025.66;;;30.45;32.82
59493;BME280;45497;43.996;22.876;2022-07-22T21:32:18;101017.84;;;30.38;32.51
59493;BME280;45497;43.996;22.876;2022-07-22T21:34:45;101024.13;;;30.39;32.26
59493;BME280;45497;43.996;22.876;2022-07-22T21:37:11;101024.41;;;30.37;32.08
59493;BME280;45497;43.996;22.876;2022-07-22T21:39:36;101028.81;;;30.33;32.08
59493;BME280;45497;43.996;22.876;2022-07-22T21:42:02;101022.91;;;30.26;32.00
59493;BME280;45497;43.996;22.876;2022-07-22T21:46:58;101026.22;;;30.23;31.96
59493;BME280;45497;43.996;22.876;2022-07-22T21:49:24;101024.47;;;30.13;32.13
59493;BME280;45497;43.996;22.876;2022-07-22T21:52:21;101018.78;;;30.09;32.38
59493;BME280;45497;43.996;22.876;2022-07-22T21:54:47;101018.53;;;30.06;32.29
59493;BME280;45497;43.996;22.876;2022-07-22T21:57:13;101022.75;;;29.98;32.48
59493;BME280;45497;43.996;22.876;2022-07-22T21:59:38;101026.34;;;29.93;32.53
59493;BME280;45497;43.996;22.876;2022-07-22T22:02:04;101021.53;;;29.85;33.26
59493;BME280;45497;43.996;22.876;2022-07-22T22:04:30;101018.88;;;29.80;32.91
59493;BME280;45497;43.996;22.876;2022-07-22T22:06:58;101024.13;;;29.77;33.11
59493;BME280;45497;43.996;22.876;2022-07-22T22:09:23;101017.56;;;29.72;32.51
59493;BME280;45497;43.996;22.876;2022-07-22T22:11:49;101022.22;;;29.72;32.77
59493;BME280;45497;43.996;22.876;2022-07-22T22:14:15;101020.34;;;29.67;32.96
59493;BME280;45497;43.996;22.876;2022-07-22T22:16:40;101009.50;;;29.62;32.70
59493;BME280;45497;43.996;22.876;2022-07-22T22:19:07;101018.28;;;29.59;32.79
59493;BME280;45497;43.996;22.876;2022-07-22T22:21:33;101015.03;;;29.57;32.93
59493;BME280;45497;43.996;22.876;2022-07-22T22:24:00;101013.66;;;29.54;32.71
59493;BME280;45497;43.996;22.876;2022-07-22T22:26:27;101012.63;;;29.50;32.66
59493;BME280;45497;43.996;22.876;2022-07-22T22:28:54;101012.16;;;29.43;33.01
59493;BME280;45497;43.996;22.876;2022-07-22T22:31:19;101011.59;;;29.46;33.30
59493;BME280;45497;43.996;22.876;2022-07-22T22:33:54;101007.56;;;29.39;33.14
59493;BME280;45497;43.996;22.876;2022-07-22T22:36:20;101005.94;;;29.38;33.38
59493;BME280;45497;43.996;22.876;2022-07-22T22:38:46;101010.38;;;29.33;33.33
59493;BME280;45497;43.996;22.876;2022-07-22T22:41:11;101002.22;;;29.28;33.54
59493;BME280;45497;43.996;22.876;2022-07-22T22:43:38;101003.31;;;29.27;33.33
59493;BME280;45497;43.996;22.876;2022-07-22T22:46:04;100997.91;;;29.22;33.47
59493;BME280;45497;43.996;22.876;2022-07-22T22:48:32;100998.25;;;29.15;33.55
59493;BME280;45497;43.996;22.876;2022-07-22T22:50:58;101000.41;;;29.13;33.72
59493;BME280;45497;43.996;22.876;2022-07-22T22:53:23;100995.81;;;29.09;33.91
59493;BME280;45497;43.996;22.876;2022-07-22T22:55:49;101003.50;;;29.07;34.06
59493;BME280;45497;43.996;22.876;2022-07-22T22:58:14;100997.28;;;29.01;33.89
59493;BME280;45497;43.996;22.876;2022-07-22T23:00:40;101008.50;;;28.94;34.12
59493;BME280;45497;43.996;22.876;2022-07-22T23:03:05;101004.22;;;28.88;34.10
59493;BME280;45497;43.996;22.876;2022-07-22T23:05:34;101009.72;;;28.83;34.21
59493;BME280;45497;43.996;22.876;2022-07-22T23:08:00;101015.16;;;28.83;34.58
59493;BME280;45497;43.996;22.876;2022-07-22T23:10:25;101014.16;;;28.74;34.72
59493;BME280;45497;43.996;22.876;2022-07-22T23:12:51;101016.31;;;28.72;34.13
59493;BME280;45497;43.996;22.876;2022-07-22T23:15:48;101016.91;;;28.69;34.22
59493;BME280;45497;43.996;22.876;2022-07-22T23:18:13;101012.03;;;28.66;34.06
59493;BME280;45497;43.996;22.876;2022-07-22T23:23:03;101011.78;;;28.62;33.89
59493;BME280;45497;43.996;22.876;2022-07-22T23:25:28;101012.59;;;28.63;33.72
59493;BME280;45497;43.996;22.876;2022-07-22T23:27:54;101015.06;;;28.59;33.61
59493;BME280;45497;43.996;22.876;2022-07-22T23:30:19;101009.09;;;28.57;33.80
59493;BME280;45497;43.996;22.876;2022-07-22T23:32:44;101008.56;;;28.55;33.79
59493;BME280;45497;43.996;22.876;2022-07-22T23:35:10;101005.56;;;28.56;33.73
59493;BME280;45497;43.996;22.876;2022-07-22T23:39:02;100999.81;;;28.53;33.79
59493;BME280;45497;43.996;22.876;2022-07-22T23:41:28;101000.94;;;28.47;34.13
59493;BME280;45497;43.996;22.876;2022-07-22T23:43:53;100996.88;;;28.44;34.06
59493;BME280;45497;43.996;22.876;2022-07-22T23:48:04;101001.56;;;28.38;33.86
59493;BME280;45497;43.996;22.876;2022-07-22T23:50:30;100999.91;;;28.37;33.97
59493;BME280;45497;43.996;22.876;2022-07-22T23:52:56;100999.38;;;28.35;33.80
59493;BME280;45497;43.996;22.876;2022-07-22T23:55:22;100996.66;;;28.35;33.92
59493;BME280;45497;43.996;22.876;2022-07-22T23:57:48;101008.38;;;28.36;33.93
